Arvonia, VA (23004)

11:27 AM EDT on July 28, 2016 (GMT -0400)
KVAGOLDH2 | | Change Station

Elev 489 ft 37.62 °N, 78.37 °W | Updated 3 minutes ago

Scattered Clouds
Scattered Clouds
86.0 °F
Feels Like 83 °F
N
0.6
Wind Variable Wind from NNE
Gusts 0.9 mph

Today
High -- | Low -- °F
--% Chance of Precip.
Yesterday
High -- | Low -- °F
Precip. -- in
Pressure 29.91 in
Visibility 10.0 miles
Clouds Scattered Clouds 11000 ft
Heat Index 83 °F
Dew Point Not available.
Humidity Not available.
Rainfall 0.00 in
Snow Depth Not available.
6:14 AM 8:25 PM
Waning Crescent, 31% visible
METAR KFVX 281515Z AUTO 00000KT 10SM SCT110 31/23 A2991 RMK AO2 T03140233
Pressure 29.91 in
Visibility 10.0 miles
Clouds Scattered Clouds 11000 ft
Heat Index 83 °F
Dew Point Not available.
Humidity Not available.
Rainfall 0.00 in
Snow Depth Not available.
6:14 AM 8:25 PM
Waning Crescent, 31% visible
METAR KFVX 281515Z AUTO 00000KT 10SM SCT110 31/23 A2991 RMK AO2 T03140233

10-Day Weather Forecast

Almanac

Astronomy

Jul. 28, 2016 Rise Set
Actual Time
Civil Twilight
Nautical Twilight
Astronomical Twilight
Moon
Length of Visible Light
Length of Day
Tomorrow will be .
, % of the Moon is Illuminated

Today's Extremes

State Highs State Lows

Community

WunderPhotos

Upload Photos

1,928,124 photos uploaded!

WunderBlog® & News

Nearby

Air Quality

  Air Quality AQ Index Pollutant
Not available.

Snow Depth

Station Depth Elevation

Earthquake Activity

City Distance Mag. Time & Date
Minimum magnitude displayed is 2.5.

Coastal Water Temperatures

Place Temperature

Stations

Nearby Weather Stations

Station Location Temp. Windchill Dew Point Humidity Wind Precip. Elev Updated Type
                   

Watches & Warnings

There are currently no watches in effect.